sensor_id;sensor_type;location;lat;lon;timestamp;pressure;altitude;pressure_sealevel;temperature;humidity
53900;BME280;40509;32.858;-116.858;2023-04-29T00:01:25;97913.03;;;24.01;43.76
53900;BME280;40509;32.858;-116.858;2023-04-29T00:03:52;97895.91;;;24.05;43.57
53900;BME280;40509;32.858;-116.858;2023-04-29T00:06:19;97907.09;;;23.99;43.34
53900;BME280;40509;32.858;-116.858;2023-04-29T00:08:47;97898.38;;;23.99;43.13
53900;BME280;40509;32.858;-116.858;2023-04-29T00:11:14;97899.88;;;24.01;43.51
53900;BME280;40509;32.858;-116.858;2023-04-29T00:13:42;97910.09;;;23.96;43.10
53900;BME280;40509;32.858;-116.858;2023-04-29T00:16:27;97910.44;;;23.93;43.24
53900;BME280;40509;32.858;-116.858;2023-04-29T00:18:55;97914.53;;;23.96;43.31
53900;BME280;40509;32.858;-116.858;2023-04-29T00:21:22;97913.88;;;23.94;43.50
53900;BME280;40509;32.858;-116.858;2023-04-29T00:24:12;97915.53;;;23.95;43.84
53900;BME280;40509;32.858;-116.858;2023-04-29T00:26:50;97908.94;;;23.90;44.08
53900;BME280;40509;32.858;-116.858;2023-04-29T00:29:18;97910.88;;;23.97;43.57
53900;BME280;40509;32.858;-116.858;2023-04-29T00:31:46;97913.38;;;23.90;43.55
53900;BME280;40509;32.858;-116.858;2023-04-29T00:34:26;97926.56;;;23.90;43.78
53900;BME280;40509;32.858;-116.858;2023-04-29T00:36:53;97928.34;;;23.81;44.25
53900;BME280;40509;32.858;-116.858;2023-04-29T00:39:43;97931.97;;;23.80;44.36
53900;BME280;40509;32.858;-116.858;2023-04-29T00:42:10;97937.09;;;23.73;44.33
53900;BME280;40509;32.858;-116.858;2023-04-29T00:44:38;97943.19;;;23.82;43.62
53900;BME280;40509;32.858;-116.858;2023-04-29T00:47:05;97942.19;;;23.58;44.36
53900;BME280;40509;32.858;-116.858;2023-04-29T00:49:38;97941.19;;;23.51;45.05
53900;BME280;40509;32.858;-116.858;2023-04-29T00:52:06;97943.84;;;23.51;45.01
53900;BME280;40509;32.858;-116.858;2023-04-29T00:54:34;97943.66;;;23.53;44.78
53900;BME280;40509;32.858;-116.858;2023-04-29T00:57:02;97943.66;;;23.53;45.09
53900;BME280;40509;32.858;-116.858;2023-04-29T00:59:29;97943.50;;;23.46;45.06
53900;BME280;40509;32.858;-116.858;2023-04-29T01:02:00;97952.72;;;23.50;45.07
53900;BME280;40509;32.858;-116.858;2023-04-29T01:04:29;97952.06;;;23.40;45.06
53900;BME280;40509;32.858;-116.858;2023-04-29T01:07:07;97942.00;;;23.52;44.83
53900;BME280;40509;32.858;-116.858;2023-04-29T01:10:02;97948.59;;;23.56;44.89
53900;BME280;40509;32.858;-116.858;2023-04-29T01:18:03;97964.91;;;23.35;45.30
53900;BME280;40509;32.858;-116.858;2023-04-29T01:20:32;97956.50;;;23.39;45.74
53900;BME280;40509;32.858;-116.858;2023-04-29T01:23:00;97964.22;;;23.41;45.65
53900;BME280;40509;32.858;-116.858;2023-04-29T01:25:28;97968.34;;;23.35;45.75
53900;BME280;40509;32.858;-116.858;2023-04-29T01:31:17;97965.34;;;23.14;45.97
53900;BME280;40509;32.858;-116.858;2023-04-29T01:36:52;97967.50;;;23.18;46.13
53900;BME280;40509;32.858;-116.858;2023-04-29T01:39:59;97971.53;;;23.04;46.33
53900;BME280;40509;32.858;-116.858;2023-04-29T01:42:39;97969.72;;;23.05;46.44
53900;BME280;40509;32.858;-116.858;2023-04-29T01:45:15;97970.72;;;23.04;46.64
53900;BME280;40509;32.858;-116.858;2023-04-29T01:47:48;97971.84;;;23.01;46.51
53900;BME280;40509;32.858;-116.858;2023-04-29T01:50:17;97966.41;;;22.95;46.83
53900;BME280;40509;32.858;-116.858;2023-04-29T01:52:44;97976.63;;;23.06;46.67
53900;BME280;40509;32.858;-116.858;2023-04-29T01:55:12;97981.31;;;23.20;45.84
53900;BME280;40509;32.858;-116.858;2023-04-29T01:57:53;97988.09;;;23.31;46.32
53900;BME280;40509;32.858;-116.858;2023-04-29T02:00:49;97983.63;;;23.32;45.84
53900;BME280;40509;32.858;-116.858;2023-04-29T02:03:18;97988.78;;;23.33;45.88
53900;BME280;40509;32.858;-116.858;2023-04-29T02:05:49;97991.91;;;23.45;45.93
53900;BME280;40509;32.858;-116.858;2023-04-29T02:08:17;97986.31;;;23.48;46.35
53900;BME280;40509;32.858;-116.858;2023-04-29T02:10:56;97986.63;;;23.45;45.86
53900;BME280;40509;32.858;-116.858;2023-04-29T02:13:38;97985.19;;;23.51;45.93
53900;BME280;40509;32.858;-116.858;2023-04-29T02:16:10;97994.88;;;23.50;46.29
53900;BME280;40509;32.858;-116.858;2023-04-29T02:18:42;98002.13;;;23.48;46.35
53900;BME280;40509;32.858;-116.858;2023-04-29T02:21:09;97999.97;;;23.44;46.22
53900;BME280;40509;32.858;-116.858;2023-04-29T02:23:38;98003.44;;;23.44;46.60
53900;BME280;40509;32.858;-116.858;2023-04-29T02:26:05;98011.53;;;23.51;46.43
53900;BME280;40509;32.858;-116.858;2023-04-29T02:28:32;98003.47;;;23.52;46.36
53900;BME280;40509;32.858;-116.858;2023-04-29T02:31:00;98001.13;;;23.49;46.28
53900;BME280;40509;32.858;-116.858;2023-04-29T02:33:28;97997.69;;;23.49;46.47
53900;BME280;40509;32.858;-116.858;2023-04-29T02:35:55;97997.69;;;23.49;46.61
53900;BME280;40509;32.858;-116.858;2023-04-29T02:38:22;97996.88;;;23.48;46.34
53900;BME280;40509;32.858;-116.858;2023-04-29T02:40:49;98010.69;;;23.50;46.34
53900;BME280;40509;32.858;-116.858;2023-04-29T02:43:17;98008.72;;;23.52;46.38
53900;BME280;40509;32.858;-116.858;2023-04-29T02:45:45;98007.25;;;23.50;46.84
53900;BME280;40509;32.858;-116.858;2023-04-29T02:48:12;98011.66;;;23.49;46.49
53900;BME280;40509;32.858;-116.858;2023-04-29T02:50:40;98009.88;;;23.50;46.50
53900;BME280;40509;32.858;-116.858;2023-04-29T02:53:07;98011.81;;;23.48;46.70
53900;BME280;40509;32.858;-116.858;2023-04-29T02:55:35;98015.44;;;23.47;47.04
53900;BME280;40509;32.858;-116.858;2023-04-29T02:58:07;98019.25;;;23.44;46.73
53900;BME280;40509;32.858;-116.858;2023-04-29T03:00:34;98020.88;;;23.45;47.05
53900;BME280;40509;32.858;-116.858;2023-04-29T03:03:01;98029.47;;;23.47;47.16
53900;BME280;40509;32.858;-116.858;2023-04-29T03:05:29;98033.41;;;23.43;47.01
53900;BME280;40509;32.858;-116.858;2023-04-29T03:07:56;98045.59;;;23.44;47.33
53900;BME280;40509;32.858;-116.858;2023-04-29T03:10:23;98044.09;;;23.42;47.38
53900;BME280;40509;32.858;-116.858;2023-04-29T03:12:51;98046.56;;;23.43;47.17
53900;BME280;40509;32.858;-116.858;2023-04-29T03:15:18;98051.16;;;23.41;47.49
53900;BME280;40509;32.858;-116.858;2023-04-29T03:17:46;98057.09;;;23.43;47.18
53900;BME280;40509;32.858;-116.858;2023-04-29T03:20:13;98052.31;;;23.38;47.32
53900;BME280;40509;32.858;-116.858;2023-04-29T03:22:41;98064.50;;;23.39;47.63
53900;BME280;40509;32.858;-116.858;2023-04-29T03:25:09;98067.28;;;23.38;47.77
53900;BME280;40509;32.858;-116.858;2023-04-29T03:27:38;98063.00;;;23.37;47.45
53900;BME280;40509;32.858;-116.858;2023-04-29T03:30:06;98063.34;;;23.34;47.90
53900;BME280;40509;32.858;-116.858;2023-04-29T03:32:34;98066.47;;;23.37;47.77
53900;BME280;40509;32.858;-116.858;2023-04-29T03:35:02;98078.97;;;23.35;47.83
53900;BME280;40509;32.858;-116.858;2023-04-29T03:37:43;98074.84;;;23.33;47.80
53900;BME280;40509;32.858;-116.858;2023-04-29T03:40:28;98074.19;;;23.31;47.77
53900;BME280;40509;32.858;-116.858;2023-04-29T03:42:56;98084.41;;;23.34;47.70
53900;BME280;40509;32.858;-116.858;2023-04-29T03:45:23;98085.38;;;23.33;47.98
53900;BME280;40509;32.858;-116.858;2023-04-29T03:47:50;98085.38;;;23.33;47.73
53900;BME280;40509;32.858;-116.858;2023-04-29T03:50:19;98089.00;;;23.32;47.93
53900;BME280;40509;32.858;-116.858;2023-04-29T03:52:47;98090.81;;;23.31;48.01
53900;BME280;40509;32.858;-116.858;2023-04-29T03:55:17;98100.53;;;23.31;48.17
53900;BME280;40509;32.858;-116.858;2023-04-29T03:57:44;98099.84;;;23.29;48.24
53900;BME280;40509;32.858;-116.858;2023-04-29T04:00:13;98107.75;;;23.29;47.90
53900;BME280;40509;32.858;-116.858;2023-04-29T04:02:44;98101.69;;;23.28;48.04
53900;BME280;40509;32.858;-116.858;2023-04-29T04:05:13;98101.50;;;23.30;47.87
53900;BME280;40509;32.858;-116.858;2023-04-29T04:07:46;98113.34;;;23.26;48.16
53900;BME280;40509;32.858;-116.858;2023-04-29T04:10:44;98111.22;;;23.29;48.03
53900;BME280;40509;32.858;-116.858;2023-04-29T04:13:44;98115.47;;;23.22;48.16
53900;BME280;40509;32.858;-116.858;2023-04-29T04:16:13;98124.84;;;23.24;48.19
53900;BME280;40509;32.858;-116.858;2023-04-29T04:18:40;98127.50;;;23.24;48.47
53900;BME280;40509;32.858;-116.858;2023-04-29T04:21:09;98124.34;;;23.21;48.49
53900;BME280;40509;32.858;-116.858;2023-04-29T04:23:39;98127.97;;;23.20;48.29
53900;BME280;40509;32.858;-116.858;2023-04-29T04:26:08;98137.50;;;23.21;48.66
53900;BME280;40509;32.858;-116.858;2023-04-29T04:28:53;98135.38;;;23.24;48.19
53900;BME280;40509;32.858;-116.858;2023-04-29T04:31:32;98141.78;;;23.22;48.42
53900;BME280;40509;32.858;-116.858;2023-04-29T04:34:00;98142.94;;;23.19;48.61
53900;BME280;40509;32.858;-116.858;2023-04-29T04:36:30;98137.38;;;23.22;48.36
53900;BME280;40509;32.858;-116.858;2023-04-29T04:38:58;98138.34;;;23.21;48.66
53900;BME280;40509;32.858;-116.858;2023-04-29T04:41:25;98136.69;;;23.20;48.71
53900;BME280;40509;32.858;-116.858;2023-04-29T04:43:53;98146.69;;;23.17;48.38
53900;BME280;40509;32.858;-116.858;2023-04-29T04:46:40;98137.81;;;23.18;48.68
53900;BME280;40509;32.858;-116.858;2023-04-29T04:49:14;98148.03;;;23.21;48.56
53900;BME280;40509;32.858;-116.858;2023-04-29T04:51:52;98141.31;;;23.18;48.51
53900;BME280;40509;32.858;-116.858;2023-04-29T04:54:19;98139.81;;;23.16;48.29
53900;BME280;40509;32.858;-116.858;2023-04-29T04:56:51;98145.72;;;23.18;48.62
53900;BME280;40509;32.858;-116.858;2023-04-29T04:59:18;98145.72;;;23.18;48.32
53900;BME280;40509;32.858;-116.858;2023-04-29T05:01:45;98144.06;;;23.17;48.71
53900;BME280;40509;32.858;-116.858;2023-04-29T05:04:13;98140.94;;;23.13;48.30
53900;BME280;40509;32.858;-116.858;2023-04-29T05:06:41;98140.63;;;23.16;48.66
53900;BME280;40509;32.858;-116.858;2023-04-29T05:09:08;98139.25;;;23.12;48.39
53900;BME280;40509;32.858;-116.858;2023-04-29T05:11:36;98141.88;;;23.12;48.68
53900;BME280;40509;32.858;-116.858;2023-04-29T05:14:15;98132.66;;;23.08;48.68
53900;BME280;40509;32.858;-116.858;2023-04-29T05:16:43;98140.22;;;23.11;48.80
53900;BME280;40509;32.858;-116.858;2023-04-29T05:19:12;98142.72;;;23.13;48.67
53900;BME280;40509;32.858;-116.858;2023-04-29T05:21:40;98150.75;;;23.11;48.66
53900;BME280;40509;32.858;-116.858;2023-04-29T05:24:09;98145.50;;;23.11;48.72
53900;BME280;40509;32.858;-116.858;2023-04-29T05:26:37;98146.50;;;23.10;48.32
53900;BME280;40509;32.858;-116.858;2023-04-29T05:29:06;98133.03;;;23.13;48.59
53900;BME280;40509;32.858;-116.858;2023-04-29T05:31:42;98138.31;;;23.13;48.40
53900;BME280;40509;32.858;-116.858;2023-04-29T05:34:09;98142.72;;;23.13;48.34
53900;BME280;40509;32.858;-116.858;2023-04-29T05:36:36;98145.06;;;23.16;48.10
53900;BME280;40509;32.858;-116.858;2023-04-29T05:39:03;98151.16;;;23.16;48.26
53900;BME280;40509;32.858;-116.858;2023-04-29T05:41:31;98136.63;;;23.12;48.31
53900;BME280;40509;32.858;-116.858;2023-04-29T05:43:58;98135.81;;;23.12;48.71
53900;BME280;40509;32.858;-116.858;2023-04-29T05:46:26;98139.97;;;23.14;48.73
53900;BME280;40509;32.858;-116.858;2023-04-29T05:48:53;98140.22;;;23.11;48.58
53900;BME280;40509;32.858;-116.858;2023-04-29T05:51:22;98143.41;;;23.15;48.22
53900;BME280;40509;32.858;-116.858;2023-04-29T05:53:49;98134.97;;;23.11;48.62
53900;BME280;40509;32.858;-116.858;2023-04-29T05:56:18;98136.09;;;23.08;48.34
53900;BME280;40509;32.858;-116.858;2023-04-29T05:58:45;98133.84;;;23.14;48.18
53900;BME280;40509;32.858;-116.858;2023-04-29T06:01:12;98131.31;;;23.04;48.63
53900;BME280;40509;32.858;-116.858;2023-04-29T06:03:40;98133.25;;;23.02;48.38
53900;BME280;40509;32.858;-116.858;2023-04-29T06:06:26;98137.72;;;23.01;48.33
53900;BME280;40509;32.858;-116.858;2023-04-29T06:09:20;98130.34;;;23.05;48.35
53900;BME280;40509;32.858;-116.858;2023-04-29T06:11:47;98137.88;;;23.00;48.41
53900;BME280;40509;32.858;-116.858;2023-04-29T06:14:15;98135.88;;;23.02;48.37
53900;BME280;40509;32.858;-116.858;2023-04-29T06:16:43;98137.56;;;23.03;48.27
53900;BME280;40509;32.858;-116.858;2023-04-29T06:19:10;98137.75;;;23.10;48.03
53900;BME280;40509;32.858;-116.858;2023-04-29T06:21:37;98140.03;;;23.04;48.40
53900;BME280;40509;32.858;-116.858;2023-04-29T06:24:05;98136.41;;;23.05;48.23
53900;BME280;40509;32.858;-116.858;2023-04-29T06:26:33;98142.81;;;23.03;48.31
53900;BME280;40509;32.858;-116.858;2023-04-29T06:29:01;98147.91;;;23.04;48.18
53900;BME280;40509;32.858;-116.858;2023-04-29T06:31:28;98150.56;;;23.04;47.80
53900;BME280;40509;32.858;-116.858;2023-04-29T06:34:00;98146.78;;;23.07;48.18
53900;BME280;40509;32.858;-116.858;2023-04-29T06:36:27;98150.50;;;22.96;48.17
53900;BME280;40509;32.858;-116.858;2023-04-29T06:39:19;98152.53;;;23.02;48.31
53900;BME280;40509;32.858;-116.858;2023-04-29T06:42:09;98150.34;;;22.98;48.03
53900;BME280;40509;32.858;-116.858;2023-04-29T06:44:59;98161.19;;;22.95;48.09
53900;BME280;40509;32.858;-116.858;2023-04-29T06:47:38;98151.03;;;23.00;47.92
53900;BME280;40509;32.858;-116.858;2023-04-29T06:50:11;98157.44;;;22.97;48.02
53900;BME280;40509;32.858;-116.858;2023-04-29T06:52:38;98158.88;;;22.92;48.41
53900;BME280;40509;32.858;-116.858;2023-04-29T06:55:06;98157.59;;;22.96;48.04
53900;BME280;40509;32.858;-116.858;2023-04-29T06:57:34;98153.78;;;22.90;48.45
53900;BME280;40509;32.858;-116.858;2023-04-29T07:00:02;98147.38;;;22.93;48.00
53900;BME280;40509;32.858;-116.858;2023-04-29T07:02:31;98148.50;;;22.90;48.33
53900;BME280;40509;32.858;-116.858;2023-04-29T07:04:58;98144.06;;;22.90;48.38
53900;BME280;40509;32.858;-116.858;2023-04-29T07:07:25;98147.31;;;22.84;48.32
53900;BME280;40509;32.858;-116.858;2023-04-29T07:09:53;98147.66;;;22.89;47.97
53900;BME280;40509;32.858;-116.858;2023-04-29T07:12:21;98137.78;;;22.83;48.11
53900;BME280;40509;32.858;-116.858;2023-04-29T07:14:48;98143.19;;;22.82;48.22
53900;BME280;40509;32.858;-116.858;2023-04-29T07:17:15;98143.19;;;22.82;48.09
53900;BME280;40509;32.858;-116.858;2023-04-29T07:19:42;98144.69;;;22.84;48.22
53900;BME280;40509;32.858;-116.858;2023-04-29T07:22:10;98148.59;;;22.80;48.04
53900;BME280;40509;32.858;-116.858;2023-04-29T07:24:38;98144.31;;;22.79;48.22
53900;BME280;40509;32.858;-116.858;2023-04-29T07:27:05;98142.19;;;22.83;48.12
53900;BME280;40509;32.858;-116.858;2023-04-29T07:29:33;98143.31;;;22.80;47.93
53900;BME280;40509;32.858;-116.858;2023-04-29T07:32:00;98138.38;;;22.77;48.42
53900;BME280;40509;32.858;-116.858;2023-04-29T07:34:27;98136.94;;;22.83;48.33
53900;BME280;40509;32.858;-116.858;2023-04-29T07:36:55;98133.44;;;22.74;48.52
53900;BME280;40509;32.858;-116.858;2023-04-29T07:39:22;98138.31;;;22.69;48.29
53900;BME280;40509;32.858;-116.858;2023-04-29T07:41:55;98130.09;;;22.72;48.30
53900;BME280;40509;32.858;-116.858;2023-04-29T07:44:22;98125.47;;;22.66;48.14
53900;BME280;40509;32.858;-116.858;2023-04-29T07:46:49;98135.16;;;22.65;48.56
53900;BME280;40509;32.858;-116.858;2023-04-29T07:49:16;98134.41;;;22.73;48.41
53900;BME280;40509;32.858;-116.858;2023-04-29T07:51:43;98140.94;;;22.69;48.22
53900;BME280;40509;32.858;-116.858;2023-04-29T07:54:11;98125.31;;;22.67;48.21
53900;BME280;40509;32.858;-116.858;2023-04-29T07:56:38;98130.06;;;22.64;48.31
53900;BME280;40509;32.858;-116.858;2023-04-29T07:59:07;98135.31;;;22.64;48.29
53900;BME280;40509;32.858;-116.858;2023-04-29T08:01:34;98133.81;;;22.61;48.13
53900;BME280;40509;32.858;-116.858;2023-04-29T08:04:01;98126.38;;;22.56;48.47
53900;BME280;40509;32.858;-116.858;2023-04-29T08:06:29;98130.22;;;22.62;48.00
53900;BME280;40509;32.858;-116.858;2023-04-29T08:08:58;98126.91;;;22.60;48.54
53900;BME280;40509;32.858;-116.858;2023-04-29T08:11:25;98133.31;;;22.58;48.19
53900;BME280;40509;32.858;-116.858;2023-04-29T08:13:53;98130.69;;;22.58;48.13
53900;BME280;40509;32.858;-116.858;2023-04-29T08:16:22;98135.09;;;22.57;48.31
53900;BME280;40509;32.858;-116.858;2023-04-29T08:18:52;98128.22;;;22.56;48.20
53900;BME280;40509;32.858;-116.858;2023-04-29T08:21:20;98134.28;;;22.56;48.40
53900;BME280;40509;32.858;-116.858;2023-04-29T08:23:47;98142.94;;;22.49;48.37
53900;BME280;40509;32.858;-116.858;2023-04-29T08:26:15;98133.91;;;22.51;48.18
53900;BME280;40509;32.858;-116.858;2023-04-29T08:28:42;98131.28;;;22.51;48.16
53900;BME280;40509;32.858;-116.858;2023-04-29T08:31:19;98125.34;;;22.49;48.36
53900;BME280;40509;32.858;-116.858;2023-04-29T08:33:47;98128.28;;;22.46;48.18
53900;BME280;40509;32.858;-116.858;2023-04-29T08:36:14;98124.97;;;22.44;48.57
53900;BME280;40509;32.858;-116.858;2023-04-29T08:38:42;98122.66;;;22.41;48.44
53900;BME280;40509;32.858;-116.858;2023-04-29T08:41:09;98123.16;;;22.45;48.14
53900;BME280;40509;32.858;-116.858;2023-04-29T08:43:37;98119.03;;;22.42;48.37
53900;BME280;40509;32.858;-116.858;2023-04-29T08:46:09;98121.38;;;22.45;48.05
53900;BME280;40509;32.858;-116.858;2023-04-29T08:48:37;98116.56;;;22.40;48.38
53900;BME280;40509;32.858;-116.858;2023-04-29T08:51:06;98121.00;;;22.40;48.49
53900;BME280;40509;32.858;-116.858;2023-04-29T08:53:35;98119.50;;;22.37;48.45
53900;BME280;40509;32.858;-116.858;2023-04-29T08:56:08;98116.06;;;22.37;48.25
53900;BME280;40509;32.858;-116.858;2023-04-29T08:58:38;98112.75;;;22.35;48.30
53900;BME280;40509;32.858;-116.858;2023-04-29T09:01:09;98115.38;;;22.35;48.29
53900;BME280;40509;32.858;-116.858;2023-04-29T09:03:46;98113.03;;;22.32;47.93
53900;BME280;40509;32.858;-116.858;2023-04-29T09:06:15;98105.78;;;22.34;47.93
53900;BME280;40509;32.858;-116.858;2023-04-29T09:08:43;98105.94;;;22.32;48.26
53900;BME280;40509;32.858;-116.858;2023-04-29T09:11:11;98109.94;;;22.36;47.79
53900;BME280;40509;32.858;-116.858;2023-04-29T09:13:40;98102.50;;;22.32;47.94
53900;BME280;40509;32.858;-116.858;2023-04-29T09:16:13;98094.75;;;22.30;48.16
53900;BME280;40509;32.858;-116.858;2023-04-29T09:18:48;98104.44;;;22.30;47.97
53900;BME280;40509;32.858;-116.858;2023-04-29T09:21:23;98104.44;;;22.30;48.09
53900;BME280;40509;32.858;-116.858;2023-04-29T09:23:52;98102.78;;;22.29;48.21
53900;BME280;40509;32.858;-116.858;2023-04-29T09:26:21;98091.44;;;22.28;48.26
53900;BME280;40509;32.858;-116.858;2023-04-29T09:29:08;98086.50;;;22.25;47.92
53900;BME280;40509;32.858;-116.858;2023-04-29T09:31:37;98085.66;;;22.24;48.19
53900;BME280;40509;32.858;-116.858;2023-04-29T09:34:08;98080.41;;;22.24;47.88
53900;BME280;40509;32.858;-116.858;2023-04-29T09:36:50;98084.31;;;22.20;48.20
53900;BME280;40509;32.858;-116.858;2023-04-29T09:39:23;98086.50;;;22.25;48.00
53900;BME280;40509;32.858;-116.858;2023-04-29T09:44:26;98085.59;;;22.16;48.11
53900;BME280;40509;32.858;-116.858;2023-04-29T09:47:05;98087.94;;;22.19;48.05
53900;BME280;40509;32.858;-116.858;2023-04-29T09:52:07;98082.97;;;22.16;47.99
53900;BME280;40509;32.858;-116.858;2023-04-29T09:54:36;98082.16;;;22.16;48.37
53900;BME280;40509;32.858;-116.858;2023-04-29T09:57:08;98074.41;;;22.14;48.10
53900;BME280;40509;32.858;-116.858;2023-04-29T09:59:38;98086.59;;;22.15;48.11
53900;BME280;40509;32.858;-116.858;2023-04-29T10:02:16;98081.78;;;22.11;47.97
53900;BME280;40509;32.858;-116.858;2023-04-29T10:04:45;98077.19;;;22.13;48.06
53900;BME280;40509;32.858;-116.858;2023-04-29T10:07:16;98082.47;;;22.13;48.19
53900;BME280;40509;32.858;-116.858;2023-04-29T10:09:45;98079.66;;;22.14;48.14
53900;BME280;40509;32.858;-116.858;2023-04-29T10:12:18;98081.59;;;22.12;47.94
53900;BME280;40509;32.858;-116.858;2023-04-29T10:14:59;98075.00;;;22.08;47.87
53900;BME280;40509;32.858;-116.858;2023-04-29T10:17:35;98075.00;;;22.08;48.18
53900;BME280;40509;32.858;-116.858;2023-04-29T10:20:07;98073.38;;;22.07;47.92
53900;BME280;40509;32.858;-116.858;2023-04-29T10:22:44;98077.94;;;22.05;48.18
53900;BME280;40509;32.858;-116.858;2023-04-29T10:25:14;98079.59;;;22.06;48.25
53900;BME280;40509;32.858;-116.858;2023-04-29T10:27:44;98082.50;;;22.03;48.31
53900;BME280;40509;32.858;-116.858;2023-04-29T10:30:12;98081.38;;;22.05;48.17
53900;BME280;40509;32.858;-116.858;2023-04-29T10:32:41;98075.63;;;22.02;48.06
53900;BME280;40509;32.858;-116.858;2023-04-29T10:35:09;98074.78;;;22.01;48.12
53900;BME280;40509;32.858;-116.858;2023-04-29T10:37:37;98071.50;;;21.99;47.97
53900;BME280;40509;32.858;-116.858;2023-04-29T10:42:48;98076.75;;;21.99;48.01
53900;BME280;40509;32.858;-116.858;2023-04-29T10:50:32;98084.78;;;21.98;48.08
53900;BME280;40509;32.858;-116.858;2023-04-29T10:53:05;98086.56;;;21.97;47.83
53900;BME280;40509;32.858;-116.858;2023-04-29T10:55:37;98086.88;;;21.94;47.92
53900;BME280;40509;32.858;-116.858;2023-04-29T10:58:05;98073.50;;;21.87;48.13
53900;BME280;40509;32.858;-116.858;2023-04-29T11:00:33;98082.66;;;21.83;48.39
53900;BME280;40509;32.858;-116.858;2023-04-29T11:03:05;98077.66;;;21.90;48.27
53900;BME280;40509;32.858;-116.858;2023-04-29T11:05:33;98076.75;;;21.81;48.38
53900;BME280;40509;32.858;-116.858;2023-04-29T11:08:14;98076.88;;;21.80;47.99
53900;BME280;40509;32.858;-116.858;2023-04-29T11:10:59;98077.72;;;21.80;48.30
53900;BME280;40509;32.858;-116.858;2023-04-29T11:13:30;98075.09;;;21.80;48.00
53900;BME280;40509;32.858;-116.858;2023-04-29T11:16:06;98077.03;;;21.78;48.22
53900;BME280;40509;32.858;-116.858;2023-04-29T11:18:34;98078.53;;;21.81;48.14
53900;BME280;40509;32.858;-116.858;2023-04-29T11:23:34;98077.25;;;21.85;48.09
53900;BME280;40509;32.858;-116.858;2023-04-29T11:26:02;98058.63;;;21.78;48.05
53900;BME280;40509;32.858;-116.858;2023-04-29T11:28:31;98060.44;;;21.78;48.20
53900;BME280;40509;32.858;-116.858;2023-04-29T11:30:59;98052.03;;;21.74;48.10
53900;BME280;40509;32.858;-116.858;2023-04-29T11:33:26;98056.31;;;21.75;47.95
53900;BME280;40509;32.858;-116.858;2023-04-29T11:35:54;98058.63;;;21.78;48.13
53900;BME280;40509;32.858;-116.858;2023-04-29T11:38:26;98059.91;;;21.74;48.37
53900;BME280;40509;32.858;-116.858;2023-04-29T11:40:54;98051.06;;;21.75;48.29
53900;BME280;40509;32.858;-116.858;2023-04-29T11:43:22;98047.63;;;21.75;47.94
53900;BME280;40509;32.858;-116.858;2023-04-29T11:45:51;98047.47;;;21.76;47.94
53900;BME280;40509;32.858;-116.858;2023-04-29T11:48:25;98042.50;;;21.73;48.10
53900;BME280;40509;32.858;-116.858;2023-04-29T11:50:56;98038.75;;;21.76;48.33
53900;BME280;40509;32.858;-116.858;2023-04-29T11:53:24;98043.34;;;21.73;48.09
53900;BME280;40509;32.858;-116.858;2023-04-29T11:55:53;98037.69;;;21.68;48.23
53900;BME280;40509;32.858;-116.858;2023-04-29T11:58:21;98032.97;;;21.72;48.07
53900;BME280;40509;32.858;-116.858;2023-04-29T12:00:50;98043.75;;;21.69;47.94
53900;BME280;40509;32.858;-116.858;2023-04-29T12:03:20;98039.50;;;21.68;48.02
53900;BME280;40509;32.858;-116.858;2023-04-29T12:05:54;98029.66;;;21.70;47.98
53900;BME280;40509;32.858;-116.858;2023-04-29T12:08:24;98032.75;;;21.65;48.11
53900;BME280;40509;32.858;-116.858;2023-04-29T12:10:54;98036.19;;;21.66;48.16
53900;BME280;40509;32.858;-116.858;2023-04-29T12:13:23;98031.91;;;21.65;48.07
53900;BME280;40509;32.858;-116.858;2023-04-29T12:15:52;98029.16;;;21.66;47.99
53900;BME280;40509;32.858;-116.858;2023-04-29T12:18:20;98026.13;;;21.61;48.28
53900;BME280;40509;32.858;-116.858;2023-04-29T12:20:49;98023.34;;;21.63;48.16
53900;BME280;40509;32.858;-116.858;2023-04-29T12:23:23;98024.31;;;21.62;48.14
53900;BME280;40509;32.858;-116.858;2023-04-29T12:25:57;98026.28;;;21.60;48.17
53900;BME280;40509;32.858;-116.858;2023-04-29T12:28:26;98026.13;;;21.61;48.06
53900;BME280;40509;32.858;-116.858;2023-04-29T12:30:54;98020.50;;;21.56;48.20
53900;BME280;40509;32.858;-116.858;2023-04-29T12:33:23;98018.69;;;21.56;48.30
53900;BME280;40509;32.858;-116.858;2023-04-29T12:35:51;98022.81;;;21.59;48.08
53900;BME280;40509;32.858;-116.858;2023-04-29T12:38:29;98022.31;;;21.55;48.13
53900;BME280;40509;32.858;-116.858;2023-04-29T12:41:00;98027.69;;;21.54;48.40
53900;BME280;40509;32.858;-116.858;2023-04-29T12:43:33;98027.25;;;21.59;48.23
53900;BME280;40509;32.858;-116.858;2023-04-29T12:46:06;98027.69;;;21.54;48.14
53900;BME280;40509;32.858;-116.858;2023-04-29T12:48:35;98025.59;;;21.58;48.13
53900;BME280;40509;32.858;-116.858;2023-04-29T12:51:12;98035.69;;;21.52;48.35
53900;BME280;40509;32.858;-116.858;2023-04-29T12:53:40;98037.38;;;21.53;48.36
53900;BME280;40509;32.858;-116.858;2023-04-29T12:56:07;98033.38;;;21.49;48.19
53900;BME280;40509;32.858;-116.858;2023-04-29T12:58:34;98035.19;;;21.49;48.17
53900;BME280;40509;32.858;-116.858;2023-04-29T13:01:01;98044.56;;;21.51;48.27
53900;BME280;40509;32.858;-116.858;2023-04-29T13:03:29;98033.69;;;21.46;48.29
53900;BME280;40509;32.858;-116.858;2023-04-29T13:05:56;98045.16;;;21.45;48.41
53900;BME280;40509;32.858;-116.858;2023-04-29T13:08:25;98042.22;;;21.48;48.24
53900;BME280;40509;32.858;-116.858;2023-04-29T13:10:52;98045.53;;;21.50;48.13
53900;BME280;40509;32.858;-116.858;2023-04-29T13:13:20;98050.09;;;21.48;48.15
53900;BME280;40509;32.858;-116.858;2023-04-29T13:15:47;98053.03;;;21.45;48.23